createdAt,value
2023-03-08T00:00:41.268Z,1.49
2023-03-08T00:03:13.226Z,1.61
2023-03-08T00:05:41.212Z,1.59
2023-03-08T00:08:09.726Z,1.67
2023-03-08T00:10:38.423Z,1.77
2023-03-08T00:13:06.571Z,1.67
2023-03-08T00:15:34.714Z,1.77
2023-03-08T00:18:02.866Z,1.92
2023-03-08T00:20:32.345Z,1.83
2023-03-08T00:23:00.409Z,1.88
2023-03-08T00:25:28.535Z,1.86
2023-03-08T00:27:56.553Z,1.83
2023-03-08T00:30:24.990Z,1.84
2023-03-08T00:32:53.108Z,1.81
2023-03-08T00:35:21.207Z,1.75
2023-03-08T00:37:50.777Z,1.70
2023-03-08T00:40:19.179Z,1.81
2023-03-08T00:42:47.212Z,1.82
2023-03-08T00:45:15.842Z,1.85
2023-03-08T00:47:43.807Z,1.62
2023-03-08T00:50:12.715Z,1.75
2023-03-08T00:52:41.163Z,1.69
2023-03-08T00:55:11.680Z,1.71
2023-03-08T00:57:39.706Z,1.63
2023-03-08T01:00:12.843Z,1.75
2023-03-08T01:02:41.457Z,1.73
2023-03-08T01:05:10.739Z,1.79
2023-03-08T01:07:38.763Z,1.71
2023-03-08T01:10:07.566Z,1.96
2023-03-08T01:12:36.953Z,1.98
2023-03-08T01:15:06.128Z,1.88
2023-03-08T01:17:34.484Z,1.81
2023-03-08T01:20:02.799Z,1.73
2023-03-08T01:22:30.828Z,1.65
2023-03-08T01:24:58.940Z,1.76
2023-03-08T01:27:26.987Z,1.87
2023-03-08T01:29:56.476Z,2.00
2023-03-08T01:32:24.587Z,2.07
2023-03-08T01:34:52.813Z,1.99
2023-03-08T01:37:20.840Z,1.95
2023-03-08T01:39:49.323Z,1.82
2023-03-08T01:42:17.370Z,1.81
2023-03-08T01:44:53.214Z,2.00
2023-03-08T01:47:23.227Z,1.89
2023-03-08T01:49:51.307Z,1.91
2023-03-08T01:52:21.392Z,2.11
2023-03-08T01:54:50.370Z,1.98
2023-03-08T01:57:19.307Z,1.93
2023-03-08T01:59:47.898Z,1.93
2023-03-08T02:02:15.996Z,2.10
2023-03-08T02:04:45.422Z,2.04
2023-03-08T02:07:13.430Z,1.97
2023-03-08T02:09:41.473Z,1.70
2023-03-08T02:12:53.854Z,1.78
2023-03-08T02:15:23.941Z,1.76
2023-03-08T02:17:52.690Z,1.67
2023-03-08T02:20:23.268Z,1.83
2023-03-08T02:22:53.347Z,1.70
2023-03-08T02:25:22.294Z,1.61
2023-03-08T02:27:50.332Z,1.58
2023-03-08T02:30:19.595Z,1.60
2023-03-08T02:32:47.635Z,1.61
2023-03-08T02:35:15.624Z,1.51
2023-03-08T02:37:43.677Z,1.56
2023-03-08T02:40:14.495Z,1.60
2023-03-08T02:42:42.503Z,1.53
2023-03-08T02:45:11.515Z,1.42
2023-03-08T02:47:39.577Z,1.48
2023-03-08T02:50:08.658Z,1.49
2023-03-08T02:52:37.033Z,1.46
2023-03-08T02:55:05.604Z,1.45
2023-03-08T02:57:35.046Z,1.53
2023-03-08T03:00:03.114Z,1.46
2023-03-08T03:02:31.157Z,1.42
2023-03-08T03:04:59.182Z,1.38
2023-03-08T03:07:27.131Z,1.41
2023-03-08T03:09:55.346Z,1.37
2023-03-08T03:12:23.704Z,1.42
2023-03-08T03:14:53.183Z,1.39
2023-03-08T03:17:21.234Z,1.46
2023-03-08T03:19:49.714Z,1.58
2023-03-08T03:22:17.799Z,1.44
2023-03-08T03:24:45.788Z,1.52
2023-03-08T03:27:14.228Z,1.33
2023-03-08T03:29:42.247Z,1.39
2023-03-08T03:32:11.844Z,1.47
2023-03-08T03:34:40.255Z,1.24
2023-03-08T03:37:08.416Z,1.41
2023-03-08T03:39:39.112Z,1.47
2023-03-08T03:42:07.568Z,1.75
2023-03-08T03:44:35.930Z,1.48
2023-03-08T03:47:04.294Z,1.41
2023-03-08T03:49:33.723Z,1.51
2023-03-08T03:52:02.315Z,1.40
2023-03-08T03:54:30.333Z,1.31
2023-03-08T03:56:58.902Z,1.54
2023-03-08T03:59:27.042Z,1.38
2023-03-08T04:01:55.098Z,1.39
2023-03-08T04:04:23.158Z,1.44
2023-03-08T04:06:52.635Z,1.53
2023-03-08T04:09:20.635Z,1.26
2023-03-08T04:11:49.380Z,1.26
2023-03-08T04:14:17.803Z,1.32
2023-03-08T04:16:46.897Z,1.19
2023-03-08T04:19:14.914Z,1.15
2023-03-08T04:21:43.340Z,1.07
2023-03-08T04:24:12.785Z,1.05
2023-03-08T04:26:40.745Z,1.16
2023-03-08T04:29:08.909Z,1.18
2023-03-08T04:31:37.276Z,1.23
2023-03-08T04:34:05.477Z,1.00
2023-03-08T04:36:33.774Z,1.22
2023-03-08T04:39:01.897Z,1.16
2023-03-08T04:41:31.299Z,1.36
2023-03-08T04:43:59.350Z,1.22
2023-03-08T04:46:28.140Z,1.29
2023-03-08T04:48:56.239Z,1.50
2023-03-08T04:51:26.919Z,1.52
2023-03-08T04:53:54.924Z,1.11
2023-03-08T04:56:23.004Z,1.40
2023-03-08T04:58:52.410Z,1.47
2023-03-08T05:01:22.332Z,1.38
2023-03-08T05:03:50.685Z,1.37
2023-03-08T05:06:19.023Z,1.44
2023-03-08T05:08:47.046Z,1.37
2023-03-08T05:11:17.662Z,1.35
2023-03-08T05:13:45.627Z,1.38
2023-03-08T05:16:15.530Z,1.34
2023-03-08T05:18:43.559Z,1.29
2023-03-08T05:21:13.017Z,1.13
2023-03-08T05:23:41.028Z,1.11
2023-03-08T05:26:09.881Z,1.19
2023-03-08T05:28:38.379Z,1.05
2023-03-08T05:31:07.397Z,1.32
2023-03-08T05:33:36.880Z,1.23
2023-03-08T05:36:05.869Z,1.21
2023-03-08T05:38:34.338Z,0.94
2023-03-08T05:41:03.022Z,1.10
2023-03-08T05:43:31.021Z,0.92
2023-03-08T05:46:00.314Z,1.11
2023-03-08T05:48:28.619Z,1.28
2023-03-08T05:50:58.100Z,1.27
2023-03-08T05:53:26.349Z,1.10
2023-03-08T05:55:55.716Z,1.02
2023-03-08T05:58:23.898Z,1.09
2023-03-08T06:00:51.889Z,1.03
2023-03-08T06:03:21.744Z,1.22
2023-03-08T06:05:49.793Z,1.00
2023-03-08T06:08:19.346Z,0.78
2023-03-08T06:10:48.966Z,0.59
2023-03-08T06:13:17.045Z,0.88
2023-03-08T06:15:45.093Z,0.94
2023-03-08T06:18:13.106Z,0.65
2023-03-08T06:20:41.527Z,0.62
2023-03-08T06:23:09.712Z,0.60
2023-03-08T06:25:40.006Z,0.78
2023-03-08T06:28:09.695Z,0.90
2023-03-08T06:30:38.087Z,0.74
2023-03-08T06:33:06.132Z,0.92
2023-03-08T06:35:36.127Z,0.77
2023-03-08T06:38:08.389Z,0.77
2023-03-08T06:40:41.594Z,0.86
2023-03-08T06:43:09.801Z,0.86
2023-03-08T06:45:39.419Z,0.84
2023-03-08T06:48:07.878Z,0.78
2023-03-08T06:50:35.836Z,0.59
2023-03-08T06:53:04.463Z,0.90
2023-03-08T06:55:32.548Z,1.14
2023-03-08T06:58:01.943Z,1.05
2023-03-08T07:00:30.363Z,0.92
2023-03-08T07:02:59.083Z,1.09
2023-03-08T07:05:28.189Z,1.05
2023-03-08T07:07:57.338Z,1.07
2023-03-08T07:10:26.440Z,1.06
2023-03-08T07:12:56.194Z,0.83
2023-03-08T07:15:25.838Z,0.86
2023-03-08T07:17:55.762Z,0.95
2023-03-08T07:20:24.573Z,0.98
2023-03-08T07:22:52.794Z,0.94
2023-03-08T07:25:21.754Z,0.95
2023-03-08T07:27:49.844Z,1.25
2023-03-08T07:30:18.290Z,1.32
2023-03-08T07:32:47.948Z,1.27
2023-03-08T07:35:16.539Z,1.15
2023-03-08T07:37:45.767Z,0.97
2023-03-08T07:40:15.072Z,1.04
2023-03-08T07:42:43.354Z,1.15
2023-03-08T07:45:26.897Z,1.41
2023-03-08T07:48:35.973Z,1.23
2023-03-08T07:51:06.573Z,1.21
2023-03-08T07:53:36.486Z,1.30
2023-03-08T07:56:06.775Z,1.16
2023-03-08T07:58:34.834Z,1.41
2023-03-08T08:01:03.206Z,1.18
2023-03-08T08:03:33.344Z,1.25
2023-03-08T08:06:04.172Z,1.38
2023-03-08T08:08:32.283Z,1.39
2023-03-08T08:11:00.344Z,1.41
2023-03-08T08:13:28.419Z,1.36
2023-03-08T08:16:00.414Z,1.58
2023-03-08T08:18:28.530Z,1.59
2023-03-08T08:21:04.901Z,1.54
2023-03-08T08:23:33.401Z,1.60
2023-03-08T08:26:02.099Z,1.78
2023-03-08T08:28:30.684Z,1.83
2023-03-08T08:31:01.432Z,1.96
2023-03-08T08:33:34.772Z,1.91
2023-03-08T08:36:07.208Z,2.00
2023-03-08T08:38:35.345Z,1.91
2023-03-08T08:41:04.425Z,2.14
2023-03-08T08:43:32.760Z,2.06
2023-03-08T08:46:01.248Z,2.14
2023-03-08T08:48:30.067Z,2.07
2023-03-08T08:50:59.607Z,2.16
2023-03-08T08:53:29.107Z,2.11
2023-03-08T08:55:57.394Z,2.46
2023-03-08T08:58:25.685Z,2.45
2023-03-08T09:00:53.656Z,2.36
2023-03-08T09:03:21.790Z,2.42
2023-03-08T09:05:50.639Z,2.33
2023-03-08T09:08:21.601Z,2.58
2023-03-08T09:10:50.989Z,2.63
2023-03-08T09:13:19.324Z,2.69
2023-03-08T09:15:47.504Z,2.69
2023-03-08T09:18:15.997Z,2.92
2023-03-08T09:20:44.160Z,2.71
2023-03-08T09:23:12.340Z,2.99
2023-03-08T09:25:40.377Z,3.14
2023-03-08T09:28:10.427Z,3.22
2023-03-08T09:30:38.481Z,2.93
2023-03-08T09:33:06.696Z,3.18
2023-03-08T09:35:35.168Z,3.38
2023-03-08T09:38:05.174Z,3.41
2023-03-08T09:40:34.980Z,3.21
2023-03-08T09:43:05.806Z,3.39
2023-03-08T09:45:35.536Z,3.62
2023-03-08T09:48:07.808Z,3.36
2023-03-08T09:50:45.060Z,3.48
2023-03-08T09:53:19.062Z,3.19
2023-03-08T09:55:49.718Z,3.31
2023-03-08T09:58:22.498Z,3.15
2023-03-08T10:00:52.853Z,3.34
2023-03-08T10:03:39.278Z,3.26
2023-03-08T10:06:11.507Z,3.38
2023-03-08T10:08:46.111Z,3.76
2023-03-08T10:11:16.983Z,3.74
2023-03-08T10:13:48.044Z,3.71
2023-03-08T10:16:23.069Z,3.53
2023-03-08T10:18:52.840Z,3.63
2023-03-08T10:21:25.579Z,3.56
2023-03-08T10:23:58.529Z,3.48
2023-03-08T10:26:26.781Z,3.59
2023-03-08T10:28:54.914Z,3.92
2023-03-08T10:31:28.217Z,3.80
2023-03-08T10:34:03.204Z,3.75
2023-03-08T10:36:31.463Z,3.83
2023-03-08T10:39:06.851Z,3.79
2023-03-08T10:41:42.766Z,3.88
2023-03-08T10:44:17.748Z,4.25
2023-03-08T10:46:50.982Z,4.22
2023-03-08T10:49:19.966Z,4.20
2023-03-08T10:51:57.819Z,4.14
2023-03-08T10:54:25.840Z,4.42
2023-03-08T10:56:58.035Z,4.40
2023-03-08T10:59:32.940Z,4.50
2023-03-08T11:02:05.791Z,4.54
2023-03-08T11:04:33.993Z,4.60
2023-03-08T11:07:13.580Z,4.70
2023-03-08T11:09:52.117Z,4.54
2023-03-08T11:12:24.923Z,4.52
2023-03-08T11:14:53.331Z,4.68
2023-03-08T11:17:25.021Z,4.76
2023-03-08T11:20:00.481Z,4.69
2023-03-08T11:22:57.882Z,4.63
2023-03-08T11:25:40.697Z,4.80
2023-03-08T11:28:40.095Z,4.76
2023-03-08T11:31:19.942Z,4.79
2023-03-08T11:33:56.059Z,4.49
2023-03-08T11:36:26.254Z,4.62
2023-03-08T11:38:58.670Z,5.05
2023-03-08T11:41:30.216Z,5.03
2023-03-08T11:44:08.094Z,4.76
2023-03-08T11:46:43.323Z,4.72
2023-03-08T11:49:22.328Z,4.76
2023-03-08T11:51:52.815Z,4.67
2023-03-08T11:54:37.540Z,4.81
2023-03-08T11:57:06.787Z,4.89
2023-03-08T11:59:35.756Z,4.71
2023-03-08T12:02:08.629Z,5.14
2023-03-08T12:04:40.745Z,4.43
2023-03-08T12:07:11.126Z,4.99
2023-03-08T12:09:52.969Z,4.81
2023-03-08T12:12:22.925Z,4.85
2023-03-08T12:14:53.897Z,4.84
2023-03-08T12:17:24.126Z,4.88
2023-03-08T12:19:54.028Z,4.98
2023-03-08T12:22:41.732Z,4.63
2023-03-08T12:25:13.721Z,4.93
2023-03-08T12:27:44.452Z,4.60
2023-03-08T12:30:19.896Z,4.55
2023-03-08T12:32:48.569Z,4.95
2023-03-08T12:35:29.259Z,4.69
2023-03-08T12:37:58.730Z,4.60
2023-03-08T12:40:31.677Z,4.54
2023-03-08T12:43:08.174Z,4.56
2023-03-08T12:45:36.274Z,4.51
2023-03-08T12:48:20.289Z,4.90
2023-03-08T12:51:00.132Z,4.65
2023-03-08T12:53:33.321Z,4.72
2023-03-08T12:56:03.184Z,5.02
2023-03-08T12:58:31.761Z,4.61
2023-03-08T13:01:01.532Z,4.88
2023-03-08T13:03:31.035Z,4.88
2023-03-08T13:06:00.590Z,4.83
2023-03-08T13:08:34.975Z,4.48
2023-03-08T13:11:08.012Z,4.63
2023-03-08T13:13:41.703Z,4.89
2023-03-08T13:16:25.452Z,4.74
2023-03-08T13:19:07.644Z,5.09
2023-03-08T13:21:41.583Z,4.72
2023-03-08T13:24:13.389Z,4.70
2023-03-08T13:26:51.338Z,4.62
2023-03-08T13:29:22.470Z,4.96
2023-03-08T13:31:50.544Z,4.53
2023-03-08T13:34:26.253Z,4.65
2023-03-08T13:36:56.805Z,4.69
2023-03-08T13:39:26.781Z,4.64
2023-03-08T13:42:07.003Z,4.68
2023-03-08T13:44:34.947Z,4.99
2023-03-08T13:47:03.945Z,4.83
2023-03-08T13:49:33.603Z,5.01
2023-03-08T13:52:04.053Z,4.88
2023-03-08T13:54:33.359Z,4.89
2023-03-08T13:57:04.187Z,4.90
2023-03-08T13:59:32.458Z,4.79
2023-03-08T14:02:00.538Z,4.65
2023-03-08T14:04:30.560Z,4.81
2023-03-08T14:06:59.739Z,4.96
2023-03-08T14:09:29.198Z,4.83
2023-03-08T14:11:59.899Z,5.08
2023-03-08T14:14:30.306Z,5.00
2023-03-08T14:16:58.528Z,5.03
2023-03-08T14:19:28.367Z,5.18
2023-03-08T14:21:57.939Z,5.04
2023-03-08T14:24:28.261Z,4.88
2023-03-08T14:27:00.705Z,4.98
2023-03-08T14:29:29.396Z,5.05
2023-03-08T14:32:00.222Z,4.85
2023-03-08T14:34:29.443Z,4.93
2023-03-08T14:36:59.011Z,4.92
2023-03-08T14:39:29.482Z,4.63
2023-03-08T14:41:57.550Z,4.82
2023-03-08T14:44:26.821Z,4.95
2023-03-08T14:46:59.307Z,4.76
2023-03-08T14:49:28.557Z,4.75
2023-03-08T14:51:57.087Z,4.85
2023-03-08T14:54:32.929Z,5.06
2023-03-08T14:57:03.538Z,5.06
2023-03-08T14:59:31.974Z,5.01
2023-03-08T15:02:00.187Z,4.78
2023-03-08T15:04:28.267Z,4.98
2023-03-08T15:06:56.664Z,4.97
2023-03-08T15:09:26.344Z,4.84
2023-03-08T15:12:00.077Z,4.91
2023-03-08T15:14:28.904Z,5.10
2023-03-08T15:17:07.558Z,4.93
2023-03-08T15:19:36.594Z,4.87
2023-03-08T15:22:07.809Z,4.70
2023-03-08T15:24:36.254Z,4.74
2023-03-08T15:27:05.980Z,4.95
2023-03-08T15:29:36.957Z,4.86
2023-03-08T15:32:05.110Z,4.77
2023-03-08T15:34:37.441Z,4.81
2023-03-08T15:37:09.643Z,4.88
2023-03-08T15:39:37.849Z,4.64
2023-03-08T15:42:08.311Z,4.92
2023-03-08T15:44:36.432Z,4.80
2023-03-08T15:47:04.654Z,4.52
2023-03-08T15:49:34.992Z,4.59
2023-03-08T15:52:05.925Z,4.73
2023-03-08T15:54:37.055Z,4.54
2023-03-08T15:57:05.455Z,4.56
2023-03-08T15:59:36.559Z,4.56
2023-03-08T16:02:07.538Z,4.70
2023-03-08T16:04:36.754Z,4.54
2023-03-08T16:07:04.914Z,4.67
2023-03-08T16:09:33.153Z,4.59
2023-03-08T16:12:01.357Z,4.55
2023-03-08T16:14:29.713Z,4.55
2023-03-08T16:17:00.747Z,4.58
2023-03-08T16:19:34.964Z,4.63
2023-03-08T16:22:03.332Z,4.43
2023-03-08T16:24:31.885Z,4.62
2023-03-08T16:27:00.581Z,4.58
2023-03-08T16:29:28.604Z,4.45
2023-03-08T16:31:59.895Z,4.61
2023-03-08T16:34:28.128Z,4.66
2023-03-08T16:36:56.432Z,4.57
2023-03-08T16:39:24.986Z,4.54
2023-03-08T16:41:53.220Z,4.41
2023-03-08T16:44:23.357Z,4.59
2023-03-08T16:46:51.742Z,4.46
2023-03-08T16:49:21.215Z,4.60
2023-03-08T16:51:51.773Z,4.51
2023-03-08T16:54:19.924Z,4.53
2023-03-08T16:56:48.369Z,4.52
2023-03-08T16:59:16.547Z,4.54
2023-03-08T17:01:44.919Z,4.34
2023-03-08T17:04:13.269Z,4.56
2023-03-08T17:06:46.575Z,4.48
2023-03-08T17:09:14.572Z,4.58
2023-03-08T17:11:43.245Z,4.32
2023-03-08T17:14:12.018Z,4.40
2023-03-08T17:16:41.056Z,4.36
2023-03-08T17:19:10.012Z,4.16
2023-03-08T17:21:38.930Z,4.38
2023-03-08T17:24:09.004Z,4.23
2023-03-08T17:26:40.773Z,4.14
2023-03-08T17:29:09.378Z,4.29
2023-03-08T17:31:39.452Z,4.32
2023-03-08T17:34:08.732Z,4.41
2023-03-08T17:36:36.926Z,4.36
2023-03-08T17:39:05.277Z,4.25
2023-03-08T17:41:35.795Z,4.00
2023-03-08T17:44:03.835Z,4.07
2023-03-08T17:46:33.962Z,4.06
2023-03-08T17:49:02.059Z,4.12
2023-03-08T17:51:31.303Z,3.93
2023-03-08T17:54:01.127Z,4.21
2023-03-08T17:56:30.390Z,4.21
2023-03-08T17:59:01.134Z,4.41
2023-03-08T18:01:31.064Z,4.25
2023-03-08T18:03:59.124Z,4.04
2023-03-08T18:06:29.899Z,4.27
2023-03-08T18:08:58.072Z,4.17
2023-03-08T18:11:26.494Z,4.03
2023-03-08T18:13:55.099Z,4.33
2023-03-08T18:16:24.969Z,4.30
2023-03-08T18:18:53.002Z,3.93
2023-03-08T18:21:21.703Z,4.17
2023-03-08T18:23:49.919Z,4.04
2023-03-08T18:26:18.656Z,4.12
2023-03-08T18:28:46.871Z,4.14
2023-03-08T18:31:16.876Z,4.02
2023-03-08T18:33:46.632Z,4.06
2023-03-08T18:36:15.340Z,4.16
2023-03-08T18:38:43.564Z,4.09
2023-03-08T18:41:15.728Z,3.88
2023-03-08T18:43:44.290Z,3.87
2023-03-08T18:46:13.521Z,4.11
2023-03-08T18:48:41.776Z,4.05
2023-03-08T18:51:11.296Z,4.01
2023-03-08T18:53:39.395Z,3.98
2023-03-08T18:56:12.318Z,4.02
2023-03-08T18:58:42.305Z,3.94
2023-03-08T19:01:11.650Z,3.91
2023-03-08T19:03:40.501Z,3.78
2023-03-08T19:06:10.484Z,3.81
2023-03-08T19:08:38.909Z,3.88
2023-03-08T19:11:15.037Z,3.89
2023-03-08T19:13:43.575Z,3.67
2023-03-08T19:16:19.721Z,3.65
2023-03-08T19:18:48.256Z,3.81
2023-03-08T19:21:18.773Z,3.66
2023-03-08T19:23:47.096Z,3.51
2023-03-08T19:26:33.012Z,3.55
2023-03-08T19:29:01.238Z,3.56
2023-03-08T19:31:30.827Z,3.50
2023-03-08T19:34:00.723Z,3.69
2023-03-08T19:36:31.643Z,3.64
2023-03-08T19:38:59.931Z,3.62
2023-03-08T19:41:28.617Z,3.54
2023-03-08T19:43:56.755Z,3.40
2023-03-08T19:46:28.594Z,3.67
2023-03-08T19:48:57.766Z,3.76
2023-03-08T19:51:25.857Z,3.65
2023-03-08T19:53:55.346Z,3.79
2023-03-08T19:56:23.879Z,3.82
2023-03-08T19:58:52.301Z,3.76
2023-03-08T20:01:20.774Z,3.76
2023-03-08T20:03:49.245Z,3.74
2023-03-08T20:06:23.244Z,3.90
2023-03-08T20:08:51.696Z,3.57
2023-03-08T20:11:22.288Z,3.67
2023-03-08T20:13:50.331Z,3.81
2023-03-08T20:16:18.661Z,3.77
2023-03-08T20:18:49.402Z,3.87
2023-03-08T20:21:18.468Z,3.71
2023-03-08T20:23:47.027Z,3.79
2023-03-08T20:26:15.166Z,3.91
2023-03-08T20:28:45.244Z,3.68
2023-03-08T20:31:15.555Z,3.85
2023-03-08T20:33:43.971Z,3.71
2023-03-08T20:36:12.382Z,3.80
2023-03-08T20:38:40.605Z,3.72
2023-03-08T20:41:12.044Z,3.73
2023-03-08T20:43:40.394Z,3.68
2023-03-08T20:46:11.698Z,3.71
2023-03-08T20:48:40.769Z,3.89
2023-03-08T20:51:09.963Z,3.83
2023-03-08T20:53:39.090Z,3.75
2023-03-08T20:56:08.229Z,3.80
2023-03-08T20:58:36.581Z,3.82
2023-03-08T21:01:12.663Z,3.82
2023-03-08T21:03:40.922Z,3.84
2023-03-08T21:06:16.095Z,3.76
2023-03-08T21:08:44.659Z,3.59
2023-03-08T21:11:12.825Z,3.75
2023-03-08T21:13:41.016Z,3.72
2023-03-08T21:16:10.177Z,3.72
2023-03-08T21:18:41.820Z,3.70
2023-03-08T21:21:09.892Z,3.92
2023-03-08T21:23:37.948Z,4.00
2023-03-08T21:26:09.979Z,3.98
2023-03-08T21:28:40.431Z,3.93
2023-03-08T21:31:10.234Z,3.97
2023-03-08T21:33:40.261Z,4.04
2023-03-08T21:36:08.925Z,4.09
2023-03-08T21:38:37.259Z,4.15
2023-03-08T21:41:05.500Z,4.10
2023-03-08T21:43:33.809Z,4.08
2023-03-08T21:46:01.971Z,3.88
2023-03-08T21:48:30.073Z,3.95
2023-03-08T21:50:59.679Z,4.05
2023-03-08T21:53:27.886Z,4.13
2023-03-08T21:55:56.370Z,4.04
2023-03-08T21:58:24.543Z,4.11
2023-03-08T22:00:54.296Z,4.25
2023-03-08T22:03:22.943Z,4.23
2023-03-08T22:05:51.304Z,4.41
2023-03-08T22:08:21.930Z,4.27
2023-03-08T22:10:50.273Z,4.29
2023-03-08T22:13:18.370Z,4.36
2023-03-08T22:15:46.434Z,4.45
2023-03-08T22:18:14.601Z,4.46
2023-03-08T22:20:43.102Z,4.44
2023-03-08T22:23:11.241Z,4.48
2023-03-08T22:25:40.805Z,4.46
2023-03-08T22:28:09.380Z,4.51
2023-03-08T22:30:37.476Z,4.60
2023-03-08T22:33:05.716Z,4.66
2023-03-08T22:35:33.992Z,4.63
2023-03-08T22:38:02.111Z,4.67
2023-03-08T22:40:30.254Z,4.74
2023-03-08T22:43:00.190Z,4.77
2023-03-08T22:45:28.373Z,4.94
2023-03-08T22:47:56.522Z,4.79
2023-03-08T22:50:25.119Z,4.89
2023-03-08T22:52:55.578Z,4.92
2023-03-08T22:55:23.677Z,4.93
2023-03-08T22:57:51.776Z,5.01
2023-03-08T23:00:21.503Z,5.04
2023-03-08T23:02:49.923Z,5.05
2023-03-08T23:05:20.649Z,4.96
2023-03-08T23:07:48.855Z,5.00
2023-03-08T23:10:17.554Z,5.05
2023-03-08T23:12:46.071Z,5.04
2023-03-08T23:15:14.394Z,5.13
2023-03-08T23:17:43.978Z,5.14
2023-03-08T23:20:13.606Z,5.10
2023-03-08T23:22:44.611Z,5.09
2023-03-08T23:25:13.171Z,5.12
2023-03-08T23:27:41.432Z,5.13
2023-03-08T23:30:10.890Z,5.30
2023-03-08T23:32:39.570Z,5.32
2023-03-08T23:35:11.125Z,5.28
2023-03-08T23:37:40.554Z,5.18
2023-03-08T23:40:11.030Z,5.30
2023-03-08T23:42:40.055Z,5.37
2023-03-08T23:45:09.105Z,5.42
2023-03-08T23:47:37.195Z,5.33
2023-03-08T23:50:05.857Z,5.36
2023-03-08T23:52:35.336Z,5.37
2023-03-08T23:55:03.600Z,5.34
2023-03-08T23:57:31.777Z,5.38
